Time;durP1;ratioP1;P1;durP2;ratioP2;P2;SDS_P1;SDS_P2;PMS_P1;PMS_P2;Temp;Humidity;BMP_temperature;BMP_pressure;BME280_temperature;BME280_humidity;BME280_pressure;Samples;Min_cycle;Max_cycle;Signal;HPM_P1;HPM_P2
2021/03/17 00:01:06;;;;;;;11.60;6.15;;;179.20;1715.20;;;;;;5037183;28;20017;-68
2021/03/17 00:03:32;;;;;;;9.88;5.85;;;179.20;1715.20;;;;;;5037324;28;20034;-78
2021/03/17 00:05:58;;;;;;;8.20;5.85;;;179.20;1715.20;;;;;;5037303;28;20057;-78
2021/03/17 00:08:23;;;;;;;9.80;5.35;;;179.20;1715.20;;;;;;5037006;28;20035;-75
2021/03/17 00:10:54;;;;;;;8.73;5.72;;;179.20;1715.20;;;;;;5036867;28;20030;-74
2021/03/17 00:13:29;;;;;;;12.40;6.68;;;179.20;1715.20;;;;;;5036855;28;20470;-75
2021/03/17 00:15:59;;;;;;;10.82;6.60;;;179.20;1715.20;;;;;;5019190;28;20029;-70
2021/03/17 00:18:25;;;;;;;7.78;5.55;;;179.20;1740.80;;;;;;5036776;28;20022;-67
2021/03/17 00:20:51;;;;;;;9.00;5.88;;;154.50;1740.80;;;;;;5036892;28;20029;-75
2021/03/17 00:23:18;;;;;;;7.78;5.75;;;154.50;1740.80;;;;;;5036555;28;20044;-74
2021/03/17 00:25:45;;;;;;;10.70;6.15;;;154.50;1740.80;;;;;;5036317;28;20568;-70
2021/03/17 00:28:12;;;;;;;9.45;6.05;;;154.40;1740.80;;;;;;5036696;28;20026;-67
2021/03/17 00:30:40;;;;;;;8.90;5.88;;;154.40;1740.80;;;;;;5036304;28;20033;-67
2021/03/17 00:33:14;;;;;;;10.50;6.78;;;154.40;1740.80;;;;;;5036489;28;20375;-75
2021/03/17 00:35:42;;;;;;;10.13;6.20;;;154.40;1740.80;;;;;;5036628;28;20022;-67
2021/03/17 00:38:08;;;;;;;8.13;5.97;;;154.30;1740.80;;;;;;5036522;28;20302;-74
2021/03/17 00:40:36;;;;;;;8.07;5.90;;;154.30;1740.80;;;;;;5036180;28;20021;-74
2021/03/17 00:43:02;;;;;;;10.93;6.35;;;154.30;1740.80;;;;;;5036265;28;20463;-68
2021/03/17 00:45:28;;;;;;;10.85;6.47;;;154.30;1766.40;;;;;;5036420;28;20341;-67
2021/03/17 00:47:54;;;;;;;10.13;6.72;;;154.30;1766.40;;;;;;5036659;28;20475;-68
2021/03/17 00:50:20;;;;;;;10.25;6.97;;;154.30;1766.40;;;;;;5036546;28;20030;-72
2021/03/17 00:52:46;;;;;;;9.40;6.45;;;154.20;1766.40;;;;;;5036461;28;20056;-69
2021/03/17 00:55:13;;;;;;;11.05;6.38;;;154.20;1766.40;;;;;;5036317;28;20056;-68
2021/03/17 00:57:39;;;;;;;9.85;6.47;;;154.20;1766.40;;;;;;5036292;28;20032;-74
2021/03/17 01:00:08;;;;;;;10.55;6.93;;;154.20;1766.40;;;;;;5036191;28;20029;-67
2021/03/17 01:02:33;;;;;;;13.07;6.72;;;154.20;1766.40;;;;;;5036186;28;20030;-68
2021/03/17 01:04:59;;;;;;;10.02;6.55;;;154.20;1766.40;;;;;;5036062;28;20034;-68
2021/03/17 01:07:25;;;;;;;10.63;6.85;;;154.20;1766.40;;;;;;5035932;28;20038;-67
2021/03/17 01:09:51;;;;;;;10.30;6.43;;;154.10;1766.40;;;;;;5036004;28;20030;-68
2021/03/17 01:12:16;;;;;;;14.27;6.50;;;154.10;1766.40;;;;;;5035303;28;20030;-68
2021/03/17 01:14:43;;;;;;;9.02;5.80;;;154.10;1766.40;;;;;;5035776;28;20025;-67
2021/03/17 01:17:09;;;;;;;9.82;6.60;;;154.10;1766.40;;;;;;5035764;28;20382;-68
2021/03/17 01:19:35;;;;;;;9.43;5.88;;;154.00;1766.40;;;;;;5035703;28;20029;-68
2021/03/17 01:22:01;;;;;;;9.25;6.07;;;154.00;1766.40;;;;;;5035666;28;20057;-68
2021/03/17 01:24:27;;;;;;;9.68;5.93;;;154.00;1766.40;;;;;;5035292;28;20029;-69
2021/03/17 01:26:52;;;;;;;10.75;6.95;;;153.90;1766.40;;;;;;5034950;28;20064;-68
2021/03/17 01:29:18;;;;;;;11.13;6.75;;;153.90;1766.40;;;;;;5035781;28;20060;-68
2021/03/17 01:31:44;;;;;;;15.73;7.65;;;153.90;1766.40;;;;;;5035572;28;20460;-69
2021/03/17 01:34:10;;;;;;;14.15;7.40;;;153.90;1792.00;;;;;;5017735;28;20048;-77
2021/03/17 01:36:36;;;;;;;13.02;7.20;;;153.90;1766.40;;;;;;5036160;28;20029;-68
2021/03/17 01:39:02;;;;;;;11.40;6.90;;;153.90;1766.40;;;;;;5035500;28;20030;-84
2021/03/17 01:41:28;;;;;;;14.02;7.93;;;153.90;1766.40;;;;;;5035847;28;20036;-67
2021/03/17 01:43:54;;;;;;;13.77;7.75;;;153.80;1766.40;;;;;;5035265;28;20025;-75
2021/03/17 01:46:19;;;;;;;14.57;7.90;;;153.80;1766.40;;;;;;5035196;28;20363;-69
2021/03/17 01:48:45;;;;;;;12.90;7.53;;;153.80;1792.00;;;;;;5034762;28;20467;-75
2021/03/17 01:51:11;;;;;;;12.30;7.32;;;153.70;1792.00;;;;;;5034985;28;20021;-68
2021/03/17 01:53:38;;;;;;;10.65;6.78;;;153.70;1792.00;;;;;;5017906;28;20037;-76
2021/03/17 01:56:05;;;;;;;13.10;7.82;;;153.80;1792.00;;;;;;5034498;28;20032;-74
2021/03/17 01:58:33;;;;;;;11.57;7.30;;;153.90;1792.00;;;;;;5035026;28;20021;-67
2021/03/17 02:00:59;;;;;;;12.60;7.25;;;153.70;1792.00;;;;;;5034995;28;20049;-74
2021/03/17 02:03:26;;;;;;;10.45;6.30;;;153.70;1792.00;;;;;;5035229;28;20515;-67
2021/03/17 02:05:52;;;;;;;11.90;6.60;;;153.60;1792.00;;;;;;5034908;28;20033;-67
2021/03/17 02:08:20;;;;;;;11.30;7.05;;;153.60;1792.00;;;;;;5034688;28;20482;-75
2021/03/17 02:10:47;;;;;;;9.27;6.72;;;153.60;1792.00;;;;;;5034776;28;20113;-75
2021/03/17 02:13:50;;;;;;;8.20;6.20;;;153.60;1792.00;;;;;;5034645;28;20026;-69
2021/03/17 02:16:45;;;;;;;11.02;6.50;;;153.60;1792.00;;;;;;5034693;28;20071;-67
2021/03/17 02:19:32;;;;;;;9.38;5.95;;;153.60;1792.00;;;;;;5034443;28;20075;-75
2021/03/17 02:22:16;;;;;;;9.90;6.40;;;128.90;1792.00;;;;;;5034019;28;20036;-67
2021/03/17 02:25:00;;;;;;;10.48;6.57;;;128.90;1792.00;;;;;;5034340;28;20045;-75
2021/03/17 02:27:44;;;;;;;10.98;6.72;;;128.90;1792.00;;;;;;5034420;28;20038;-67
2021/03/17 02:30:22;;;;;;;16.05;7.15;;;128.90;1792.00;;;;;;5034435;28;20022;-68
2021/03/17 02:33:06;;;;;;;9.98;6.55;;;128.90;1792.00;;;;;;5016140;28;20387;-67
2021/03/17 02:35:33;;;;;;;8.50;6.40;;;128.80;1817.60;;;;;;5034296;28;20048;-67
2021/03/17 02:38:04;;;;;;;12.07;6.75;;;128.80;1817.60;;;;;;5034281;28;20375;-76
2021/03/17 02:40:36;;;;;;;9.73;6.93;;;128.80;1792.00;;;;;;5034048;28;20030;-67
2021/03/17 02:43:14;;;;;;;13.68;7.28;;;128.90;1792.00;;;;;;5034232;28;20068;-66
2021/03/17 02:45:42;;;;;;;11.70;6.13;;;128.80;1792.00;;;;;;5034017;28;20029;-67
2021/03/17 02:48:10;;;;;;;13.40;7.55;;;128.80;1792.00;;;;;;5032043;28;20030;-75
2021/03/17 02:50:40;;;;;;;12.88;7.13;;;128.80;1817.60;;;;;;5034286;28;20018;-74
2021/03/17 02:53:08;;;;;;;13.65;7.38;;;128.80;1817.60;;;;;;5033876;28;20060;-69
2021/03/17 02:55:38;;;;;;;11.57;6.35;;;128.80;1817.60;;;;;;5034408;28;20026;-67
2021/03/17 02:58:06;;;;;;;9.38;6.22;;;128.80;1817.60;;;;;;5033965;28;20164;-79
2021/03/17 03:00:32;;;;;;;9.30;6.28;;;128.80;1817.60;;;;;;5034269;28;20032;-78
2021/03/17 03:03:00;;;;;;;9.60;6.43;;;128.80;1817.60;;;;;;5033724;28;20049;-66
2021/03/17 03:05:27;;;;;;;13.07;7.07;;;128.80;1817.60;;;;;;5033749;28;20029;-78
2021/03/17 03:07:55;;;;;;;8.70;6.13;;;128.80;1817.60;;;;;;5033867;28;20100;-67
2021/03/17 03:10:23;;;;;;;8.23;6.25;;;128.80;1817.60;;;;;;5033856;28;20033;-68
2021/03/17 03:12:50;;;;;;;10.40;6.78;;;128.70;1817.60;;;;;;5033710;28;20047;-67
2021/03/17 03:15:21;;;;;;;9.43;6.28;;;128.70;1817.60;;;;;;5033726;28;20349;-67
2021/03/17 03:17:48;;;;;;;9.07;6.20;;;128.80;1817.60;;;;;;5033419;28;20017;-68
2021/03/17 03:20:18;;;;;;;9.07;5.65;;;128.80;1817.60;;;;;;5033788;28;20045;-68
2021/03/17 03:22:46;;;;;;;9.18;6.18;;;128.80;1817.60;;;;;;5033453;28;20479;-67
2021/03/17 03:25:13;;;;;;;8.68;5.63;;;128.80;1817.60;;;;;;5033486;28;20045;-67
2021/03/17 03:27:39;;;;;;;9.32;5.63;;;128.80;1817.60;;;;;;5033234;28;20483;-68
2021/03/17 03:30:10;;;;;;;8.32;5.28;;;128.80;1817.60;;;;;;5033580;28;20022;-69
2021/03/17 03:32:36;;;;;;;8.43;6.18;;;128.80;1817.60;;;;;;5033674;28;20032;-69
2021/03/17 03:35:06;;;;;;;7.68;5.03;;;128.80;1817.60;;;;;;5036568;28;20536;-66
2021/03/17 03:37:32;;;;;;;8.90;5.82;;;128.80;1817.60;;;;;;5037708;28;20029;-80
2021/03/17 03:39:57;;;;;;;10.55;6.18;;;128.80;1843.20;;;;;;5037813;28;20041;-68
2021/03/17 03:42:23;;;;;;;8.23;5.85;;;128.80;1843.20;;;;;;5037636;28;20053;-79
2021/03/17 03:44:49;;;;;;;8.60;6.35;;;128.80;1843.20;;;;;;5037552;28;20029;-65
2021/03/17 03:47:15;;;;;;;9.43;6.82;;;128.80;1817.60;;;;;;5037507;28;20044;-69
2021/03/17 03:49:41;;;;;;;9.00;6.28;;;128.80;1817.60;;;;;;5037257;28;20545;-69
2021/03/17 03:52:13;;;;;;;9.90;6.43;;;128.80;1843.20;;;;;;5035390;28;20036;-67
2021/03/17 03:54:48;;;;;;;9.30;6.30;;;128.80;1843.20;;;;;;5019095;28;20099;-67
2021/03/17 03:57:36;;;;;;;8.35;6.60;;;128.80;1843.20;;;;;;5037236;28;20045;-67
2021/03/17 04:00:07;;;;;;;10.10;6.55;;;128.70;1843.20;;;;;;5037056;28;20033;-67
2021/03/17 04:02:38;;;;;;;11.48;6.07;;;128.70;1843.20;;;;;;5037058;28;20032;-73
2021/03/17 04:05:05;;;;;;;9.80;7.00;;;128.70;1843.20;;;;;;5037064;28;20510;-66
2021/03/17 04:07:34;;;;;;;9.77;6.93;;;128.70;1843.20;;;;;;5037113;28;20083;-66
2021/03/17 04:10:04;;;;;;;9.65;6.40;;;128.70;1843.20;;;;;;5019196;28;20100;-65
2021/03/17 04:12:36;;;;;;;13.13;7.55;;;128.70;1843.20;;;;;;5036788;28;20373;-67
2021/03/17 04:15:02;;;;;;;10.98;6.95;;;128.70;1843.20;;;;;;5036769;28;20025;-66
2021/03/17 04:17:37;;;;;;;12.27;7.18;;;128.70;1843.20;;;;;;5036868;28;20029;-66
2021/03/17 04:20:09;;;;;;;21.30;8.10;;;128.70;1843.20;;;;;;5037389;28;20029;-66
2021/03/17 04:22:37;;;;;;;12.93;7.20;;;128.60;1843.20;;;;;;5036619;28;20026;-66
2021/03/17 04:25:06;;;;;;;11.15;7.50;;;128.60;1843.20;;;;;;5036775;28;20387;-67
2021/03/17 04:27:34;;;;;;;12.05;7.55;;;128.60;1843.20;;;;;;5036805;28;20092;-67
2021/03/17 04:30:03;;;;;;;12.00;7.97;;;128.60;1843.20;;;;;;5036975;28;20075;-67
2021/03/17 04:32:29;;;;;;;10.65;6.80;;;128.60;1843.20;;;;;;5036741;28;20125;-66
2021/03/17 04:34:56;;;;;;;13.90;7.07;;;128.70;1817.60;;;;;;5036368;28;20049;-67
2021/03/17 04:37:23;;;;;;;10.43;6.90;;;128.60;1843.20;;;;;;5036549;28;20501;-66
2021/03/17 04:39:50;;;;;;;10.25;6.80;;;128.60;1843.20;;;;;;5036274;28;20470;-66
2021/03/17 04:42:17;;;;;;;10.90;6.57;;;128.60;1817.60;;;;;;5036471;28;20148;-66
2021/03/17 04:44:43;;;;;;;16.50;7.10;;;128.60;1843.20;;;;;;5036149;28;20078;-66
2021/03/17 04:47:13;;;;;;;12.57;6.95;;;128.60;1843.20;;;;;;5035422;28;20059;-66
2021/03/17 04:49:43;;;;;;;13.35;7.00;;;128.60;1817.60;;;;;;5036233;28;20028;-66
2021/03/17 04:52:12;;;;;;;11.45;6.63;;;128.60;1843.20;;;;;;5036226;28;20104;-67
2021/03/17 04:54:37;;;;;;;11.80;7.25;;;128.60;1843.20;;;;;;5036157;28;20026;-65
2021/03/17 04:57:05;;;;;;;12.15;7.45;;;128.60;1817.60;;;;;;5036134;28;20037;-66
2021/03/17 04:59:35;;;;;;;15.45;8.38;;;128.70;1817.60;;;;;;5036159;28;20052;-65
2021/03/17 05:02:02;;;;;;;14.68;8.02;;;128.60;1817.60;;;;;;5036102;28;20356;-67
2021/03/17 05:04:28;;;;;;;13.32;7.47;;;128.60;1817.60;;;;;;5036056;28;20025;-66
2021/03/17 05:06:55;;;;;;;16.48;7.28;;;128.60;1817.60;;;;;;5035767;28;20044;-66
2021/03/17 05:09:21;;;;;;;12.98;7.35;;;128.60;1817.60;;;;;;5036050;28;20029;-67
2021/03/17 05:11:48;;;;;;;13.13;7.97;;;128.60;1817.60;;;;;;5036036;28;20064;-67
2021/03/17 05:14:14;;;;;;;17.98;8.07;;;128.60;1817.60;;;;;;5035961;28;20029;-66
2021/03/17 05:16:41;;;;;;;11.63;7.50;;;128.50;1817.60;;;;;;5035883;28;20038;-66
2021/03/17 05:19:08;;;;;;;12.77;8.07;;;128.50;1843.20;;;;;;5035173;28;20533;-67
2021/03/17 05:21:35;;;;;;;15.75;9.07;;;128.50;1817.60;;;;;;5035824;28;20026;-67
2021/03/17 05:24:01;;;;;;;14.98;8.23;;;128.50;1817.60;;;;;;5035803;28;20071;-66
2021/03/17 05:26:29;;;;;;;13.30;8.38;;;128.50;1817.60;;;;;;5017106;28;20045;-67
2021/03/17 05:28:59;;;;;;;14.52;8.90;;;128.50;1843.20;;;;;;5035938;28;20029;-67
2021/03/17 05:31:26;;;;;;;17.63;10.18;;;128.40;1843.20;;;;;;5035549;28;20021;-67
2021/03/17 05:33:52;;;;;;;21.80;11.98;;;128.40;1843.20;;;;;;5035497;28;20026;-65
2021/03/17 05:36:18;;;;;;;23.80;12.68;;;128.40;1843.20;;;;;;5035982;28;20044;-66
2021/03/17 05:38:44;;;;;;;20.83;12.30;;;128.40;1843.20;;;;;;5035463;28;20071;-67
2021/03/17 05:41:10;;;;;;;29.42;13.80;;;128.40;1843.20;;;;;;5035528;28;20467;-66
2021/03/17 05:43:37;;;;;;;22.73;14.07;;;128.40;1843.20;;;;;;5035325;28;20028;-67
2021/03/17 05:46:06;;;;;;;22.20;12.60;;;128.40;1843.20;;;;;;5035248;28;20095;-66
2021/03/17 05:48:33;;;;;;;33.10;16.10;;;128.40;1843.20;;;;;;5035221;28;20033;-66
2021/03/17 05:51:00;;;;;;;33.20;16.55;;;128.40;1843.20;;;;;;5035293;28;20032;-66
2021/03/17 05:53:26;;;;;;;29.90;15.27;;;128.40;1843.20;;;;;;5035133;28;20379;-66
2021/03/17 05:55:52;;;;;;;27.70;15.07;;;128.50;1843.20;;;;;;5035068;28;20028;-66
2021/03/17 05:58:20;;;;;;;25.45;14.30;;;128.50;1868.80;;;;;;5035038;28;20049;-66
2021/03/17 06:00:46;;;;;;;27.50;14.35;;;128.50;1868.80;;;;;;5034919;28;20068;-66
2021/03/17 06:03:13;;;;;;;25.88;14.38;;;128.50;1868.80;;;;;;5034558;28;20112;-66
2021/03/17 06:05:39;;;;;;;22.50;12.90;;;128.60;1843.20;;;;;;5035194;28;20028;-66
2021/03/17 06:08:07;;;;;;;22.55;12.52;;;128.60;1843.20;;;;;;5034579;28;20021;-66
2021/03/17 06:10:36;;;;;;;21.63;12.68;;;128.60;1843.20;;;;;;5034774;28;20022;-67
2021/03/17 06:13:13;;;;;;;17.77;10.65;;;128.70;1843.20;;;;;;5034622;28;20112;-66
2021/03/17 06:15:45;;;;;;;22.92;11.50;;;128.70;1843.20;;;;;;5034690;28;20029;-67
2021/03/17 06:18:20;;;;;;;20.42;12.25;;;128.70;1843.20;;;;;;5034597;28;20080;-66
2021/03/17 06:20:46;;;;;;;23.63;12.43;;;128.80;1843.20;;;;;;5034672;28;20032;-68
2021/03/17 06:23:13;;;;;;;18.83;11.45;;;128.80;1843.20;;;;;;5016613;28;20398;-66
2021/03/17 06:25:43;;;;;;;21.55;12.48;;;128.80;1843.20;;;;;;5034073;28;20053;-66
2021/03/17 06:28:09;;;;;;;22.52;13.13;;;128.90;1843.20;;;;;;5034558;28;20037;-66
2021/03/17 06:30:35;;;;;;;22.75;13.68;;;153.60;1843.20;;;;;;5034274;28;20021;-66
2021/03/17 06:33:01;;;;;;;24.30;12.23;;;153.60;1843.20;;;;;;5034330;28;20037;-67
2021/03/17 06:35:27;;;;;;;27.42;13.75;;;153.70;1843.20;;;;;;5034273;28;20026;-66
2021/03/17 06:37:53;;;;;;;27.40;14.68;;;153.70;1843.20;;;;;;5034155;28;20022;-67
2021/03/17 06:40:24;;;;;;;30.63;14.57;;;153.90;1817.60;;;;;;5034071;28;20029;-66
2021/03/17 06:42:51;;;;;;;26.88;14.13;;;154.00;1817.60;;;;;;5034095;28;20021;-67
2021/03/17 06:45:46;;;;;;;28.73;13.73;;;154.00;1817.60;;;;;;5034239;28;20033;-73
2021/03/17 06:48:25;;;;;;;29.70;14.68;;;154.20;1817.60;;;;;;5034320;28;20030;-69
2021/03/17 06:51:13;;;;;;;20.50;12.48;;;154.20;1817.60;;;;;;5034454;28;20467;-65
2021/03/17 06:53:53;;;;;;;23.45;11.70;;;154.30;1792.00;;;;;;5034167;28;20029;-78
2021/03/17 06:56:43;;;;;;;17.10;11.57;;;154.30;1792.00;;;;;;5034334;28;20041;-78
2021/03/17 06:59:09;;;;;;;18.95;12.23;;;154.40;1792.00;;;;;;5034025;28;20489;-64
2021/03/17 07:01:37;;;;;;;21.15;12.55;;;154.50;1792.00;;;;;;5034411;28;20064;-65
2021/03/17 07:04:09;;;;;;;19.80;11.45;;;179.20;1792.00;;;;;;5034021;28;20079;-68
2021/03/17 07:06:36;;;;;;;18.90;12.48;;;179.20;1792.00;;;;;;5034009;28;20034;-67
2021/03/17 07:09:27;;;;;;;18.08;12.60;;;179.30;1766.40;;;;;;5033505;28;20033;-64
2021/03/17 07:12:04;;;;;;;20.83;11.57;;;179.40;1792.00;;;;;;5033857;28;20029;-77
2021/03/17 07:14:40;;;;;;;16.10;11.20;;;179.40;1766.40;;;;;;5034002;28;20538;-64
2021/03/17 07:17:30;;;;;;;21.58;13.32;;;179.50;1766.40;;;;;;5033134;28;20021;-64
2021/03/17 07:19:57;;;;;;;29.98;14.63;;;179.50;1766.40;;;;;;5029008;28;20037;-74
2021/03/17 07:22:24;;;;;;;26.35;14.27;;;179.50;1766.40;;;;;;5032997;28;20064;-74
2021/03/17 07:25:01;;;;;;;24.23;14.48;;;179.60;1766.40;;;;;;5033173;28;20107;-70
2021/03/17 07:27:29;;;;;;;20.75;12.93;;;179.60;1766.40;;;;;;5030525;28;20120;-76
2021/03/17 07:29:58;;;;;;;18.73;12.90;;;179.70;1766.40;;;;;;5033262;28;20060;-64
2021/03/17 07:32:28;;;;;;;19.65;12.40;;;179.70;1740.80;;;;;;5033293;28;20033;-70
2021/03/17 07:34:54;;;;;;;15.43;10.82;;;179.80;1766.40;;;;;;5030742;28;20475;-65
2021/03/17 07:37:26;;;;;;;17.17;10.60;;;179.90;1766.40;;;;;;5032984;28;20025;-65
2021/03/17 07:39:53;;;;;;;20.15;10.77;;;180.00;1740.80;;;;;;5033585;28;20036;-65
2021/03/17 07:42:22;;;;;;;17.67;11.57;;;180.10;1740.80;;;;;;5033078;28;20026;-65
2021/03/17 07:44:48;;;;;;;17.02;11.48;;;204.80;1715.20;;;;;;5014074;28;20030;-65
2021/03/17 07:47:14;;;;;;;16.95;11.32;;;204.90;1740.80;;;;;;5013700;28;20025;-65
2021/03/17 07:49:43;;;;;;;16.88;11.45;;;205.10;1715.20;;;;;;5020892;28;20360;-65
2021/03/17 07:52:21;;;;;;;18.85;11.85;;;205.20;1689.60;;;;;;5033376;28;20537;-65
2021/03/17 07:54:53;;;;;;;19.67;12.65;;;205.30;1689.60;;;;;;5032766;28;20047;-77
2021/03/17 07:57:23;;;;;;;21.27;12.57;;;205.40;1689.60;;;;;;5032996;28;20478;-70
2021/03/17 08:00:14;;;;;;;21.40;12.05;;;205.60;1689.60;;;;;;5032736;28;20017;-77
2021/03/17 08:02:41;;;;;;;18.90;12.23;;;205.70;1664.00;;;;;;5032339;28;20030;-65
2021/03/17 08:05:08;;;;;;;19.85;13.70;;;230.50;1664.00;;;;;;5033379;28;20025;-66
2021/03/17 08:07:36;;;;;;;23.38;15.57;;;230.60;1638.40;;;;;;5033450;28;20467;-66
2021/03/17 08:10:03;;;;;;;27.77;17.67;;;230.70;1638.40;;;;;;5033022;28;20021;-66
2021/03/17 08:12:30;;;;;;;21.42;13.88;;;230.90;1612.80;;;;;;5033203;28;20026;-77
2021/03/17 08:14:56;;;;;;;23.55;13.68;;;231.00;1587.20;;;;;;5033114;28;20083;-66
2021/03/17 08:17:33;;;;;;;22.95;13.57;;;231.10;1561.60;;;;;;5016000;28;20410;-67
2021/03/17 08:20:23;;;;;;;25.02;14.00;;;231.20;1561.60;;;;;;5034384;28;20052;-74
2021/03/17 08:22:51;;;;;;;18.40;12.93;;;256.00;1561.60;;;;;;5036674;28;20025;-65
2021/03/17 08:25:37;;;;;;;30.13;14.75;;;256.10;1536.00;;;;;;5030555;28;20067;-66
2021/03/17 08:28:20;;;;;;;27.77;14.82;;;256.30;1536.00;;;;;;5035841;28;20117;-76
2021/03/17 08:30:47;;;;;;;23.15;14.65;;;256.40;1510.40;;;;;;5035885;28;20032;-76
2021/03/17 08:33:35;;;;;;;23.38;14.00;;;256.60;1510.40;;;;;;5035436;28;20048;-76
2021/03/17 08:36:07;;;;;;;25.33;13.95;;;256.80;1484.80;;;;;;5035868;28;20026;-74
2021/03/17 08:38:51;;;;;;;21.15;14.50;;;256.80;1484.80;;;;;;5035813;28;20049;-76
2021/03/17 08:41:43;;;;;;;25.42;15.82;;;281.60;1510.40;;;;;;5035250;28;20026;-66
2021/03/17 08:44:16;;;;;;;19.95;13.82;;;281.70;1484.80;;;;;;5032304;28;20048;-68
2021/03/17 08:46:43;;;;;;;18.50;12.73;;;281.80;1484.80;;;;;;5035030;28;20059;-66
2021/03/17 08:49:11;;;;;;;20.50;12.90;;;282.00;1484.80;;;;;;5035492;28;20029;-67
2021/03/17 08:51:49;;;;;;;21.90;13.85;;;282.10;1459.20;;;;;;5034840;28;20030;-66
2021/03/17 08:54:32;;;;;;;18.70;12.07;;;282.50;1459.20;;;;;;5033257;28;20033;-66
2021/03/17 08:57:08;;;;;;;17.70;12.27;;;307.30;1459.20;;;;;;5034738;28;20021;-65
2021/03/17 08:59:49;;;;;;;16.73;12.82;;;307.40;1433.60;;;;;;5035376;28;20022;-68
2021/03/17 09:02:42;;;;;;;17.13;12.65;;;307.60;1408.00;;;;;;5034793;28;20029;-65
2021/03/17 09:05:29;;;;;;;16.52;11.80;;;307.70;1408.00;;;;;;5034991;28;20017;-73
2021/03/17 09:08:07;;;;;;;11.55;10.35;;;307.90;1408.00;;;;;;5034999;28;20025;-64
2021/03/17 09:10:59;;;;;;;11.40;9.60;;;308.10;1382.40;;;;;;5016930;28;20036;-66
2021/03/17 09:13:50;;;;;;;14.10;10.02;;;332.80;1382.40;;;;;;5031929;28;20515;-65
2021/03/17 09:16:16;;;;;;;13.88;10.32;;;332.80;1382.40;;;;;;5034738;28;20029;-66
2021/03/17 09:18:41;;;;;;;16.50;11.48;;;332.80;1408.00;;;;;;5034827;28;20036;-68
2021/03/17 09:21:07;;;;;;;18.40;13.27;;;332.90;1408.00;;;;;;5035145;28;20476;-66
2021/03/17 09:23:37;;;;;;;22.13;12.93;;;333.10;1408.00;;;;;;5034755;28;20029;-68
2021/03/17 09:26:04;;;;;;;17.92;13.00;;;333.20;1382.40;;;;;;5034391;28;20057;-71
2021/03/17 09:28:34;;;;;;;20.63;13.00;;;333.30;1382.40;;;;;;5034355;28;20037;-76
2021/03/17 09:31:08;;;;;;;21.52;15.68;;;333.40;1382.40;;;;;;5034519;28;20209;-74
2021/03/17 09:33:35;;;;;;;18.95;13.90;;;333.30;1382.40;;;;;;5034087;28;20053;-75
2021/03/17 09:36:08;;;;;;;18.92;13.70;;;333.40;1382.40;;;;;;5031282;28;20399;-76
2021/03/17 09:38:40;;;;;;;16.73;12.88;;;333.60;1356.80;;;;;;5034669;28;20034;-66
2021/03/17 09:41:13;;;;;;;17.63;11.10;;;358.40;1356.80;;;;;;5034356;28;20052;-66
2021/03/17 09:43:40;;;;;;;18.95;13.13;;;358.50;1331.20;;;;;;5034524;28;20029;-66
2021/03/17 09:46:36;;;;;;;19.63;13.65;;;358.70;1280.00;;;;;;5028043;28;20084;-66
2021/03/17 09:49:06;;;;;;;21.48;14.55;;;358.80;1280.00;;;;;;5014458;28;20076;-65
2021/03/17 09:51:54;;;;;;;22.98;13.85;;;358.90;1254.40;;;;;;5034425;28;20052;-65
2021/03/17 09:54:22;;;;;;;18.10;12.93;;;359.10;1254.40;;;;;;5033615;28;20028;-65
2021/03/17 09:56:53;;;;;;;23.13;13.50;;;359.20;1254.40;;;;;;5032578;28;20033;-66
2021/03/17 09:59:23;;;;;;;20.13;14.60;;;359.30;1228.80;;;;;;5034168;28;20045;-66
2021/03/17 10:01:53;;;;;;;22.70;15.38;;;384.00;1228.80;;;;;;5034190;28;20108;-66
2021/03/17 10:04:21;;;;;;;19.30;13.60;;;384.30;1228.80;;;;;;5033575;28;20096;-66
2021/03/17 10:06:48;;;;;;;20.35;14.73;;;384.40;1203.20;;;;;;5034158;28;20029;-65
2021/03/17 10:09:14;;;;;;;21.60;14.82;;;384.60;1177.60;;;;;;5033703;28;20021;-66
2021/03/17 10:11:41;;;;;;;17.85;13.00;;;384.90;1152.00;;;;;;5033663;28;20037;-65
2021/03/17 10:14:14;;;;;;;17.90;12.73;;;384.80;1126.40;;;;;;5033907;28;20068;-66
2021/03/17 10:16:40;;;;;;;18.75;13.68;;;409.60;1126.40;;;;;;5033556;28;20059;-66
2021/03/17 10:19:07;;;;;;;21.95;14.98;;;409.70;1126.40;;;;;;5033547;28;20018;-65
2021/03/17 10:21:33;;;;;;;26.10;15.82;;;409.70;1126.40;;;;;;5033725;28;20055;-67
2021/03/17 10:23:59;;;;;;;26.83;18.55;;;409.60;1100.80;;;;;;5033186;28;20025;-67
2021/03/17 10:26:26;;;;;;;26.52;17.95;;;409.70;1100.80;;;;;;5033116;28;20132;-66
2021/03/17 10:28:53;;;;;;;18.95;14.00;;;409.80;1075.20;;;;;;5033929;28;20022;-67
2021/03/17 10:31:19;;;;;;;19.52;12.73;;;409.80;1049.60;;;;;;5033409;28;20026;-66
2021/03/17 10:33:47;;;;;;;18.23;12.52;;;409.70;1049.60;;;;;;5033289;28;20028;-66
2021/03/17 10:36:13;;;;;;;16.73;11.68;;;409.60;1024.00;;;;;;5033525;28;20104;-66
2021/03/17 10:38:39;;;;;;;17.48;11.60;;;384.80;998.40;;;;;;5033227;28;20112;-66
2021/03/17 10:41:05;;;;;;;17.15;12.07;;;384.70;1024.00;;;;;;5032180;28;20032;-66
2021/03/17 10:43:31;;;;;;;16.42;10.82;;;384.70;1024.00;;;;;;5031824;28;20028;-66
2021/03/17 10:46:03;;;;;;;18.33;11.45;;;384.70;1049.60;;;;;;5032555;28;20472;-66
2021/03/17 10:48:29;;;;;;;20.10;13.02;;;384.60;1049.60;;;;;;5013655;28;20118;-65
2021/03/17 10:50:56;;;;;;;21.52;13.85;;;384.50;1049.60;;;;;;5015085;28;20132;-65
2021/03/17 10:53:24;;;;;;;18.55;12.85;;;384.40;1049.60;;;;;;5032839;28;20069;-67
2021/03/17 10:55:52;;;;;;;21.45;13.02;;;384.30;998.40;;;;;;5032055;28;20104;-66
2021/03/17 10:58:29;;;;;;;17.48;11.52;;;384.20;1024.00;;;;;;5041341;28;20033;-66
2021/03/17 11:00:57;;;;;;;17.05;12.20;;;384.20;1024.00;;;;;;5032607;28;20124;-66
2021/03/17 11:03:28;;;;;;;19.33;13.93;;;384.20;1049.60;;;;;;5031419;28;20029;-69
2021/03/17 11:06:10;;;;;;;17.70;12.80;;;384.10;1075.20;;;;;;5030964;28;20122;-66
2021/03/17 11:08:36;;;;;;;18.40;13.73;;;359.30;1126.40;;;;;;5033068;28;20048;-66
2021/03/17 11:11:14;;;;;;;20.45;14.80;;;359.20;1152.00;;;;;;5032352;28;20025;-66
2021/03/17 11:13:45;;;;;;;26.20;14.02;;;359.10;1177.60;;;;;;5032742;28;20119;-69
2021/03/17 11:16:25;;;;;;;18.60;12.43;;;359.00;1203.20;;;;;;5038440;28;20026;-65
2021/03/17 11:18:53;;;;;;;25.02;13.85;;;358.90;1177.60;;;;;;5034273;28;20062;-66
2021/03/17 11:21:29;;;;;;;23.38;12.98;;;358.90;1203.20;;;;;;5048988;28;20025;-66
2021/03/17 11:24:00;;;;;;;21.33;14.20;;;358.90;1203.20;;;;;;5049193;28;20057;-66
2021/03/17 11:26:29;;;;;;;20.45;14.57;;;358.90;1203.20;;;;;;5043702;28;20049;-66
2021/03/17 11:28:57;;;;;;;18.17;12.82;;;358.90;1203.20;;;;;;5041693;28;20025;-66
2021/03/17 11:31:34;;;;;;;18.70;13.38;;;359.00;1177.60;;;;;;5040926;28;20034;-66
2021/03/17 11:34:02;;;;;;;25.10;13.82;;;359.10;1177.60;;;;;;5047913;28;20434;-67
2021/03/17 11:36:28;;;;;;;22.13;14.90;;;359.10;1152.00;;;;;;5034700;28;20060;-65
2021/03/17 11:38:57;;;;;;;26.70;16.40;;;359.10;1152.00;;;;;;5034904;28;20028;-65
2021/03/17 11:41:24;;;;;;;38.65;19.52;;;359.20;1152.00;;;;;;5030233;28;20124;-65
2021/03/17 11:43:50;;;;;;;42.50;17.80;;;359.30;1126.40;;;;;;5032091;28;20479;-66
2021/03/17 11:46:17;;;;;;;37.15;18.35;;;359.30;1126.40;;;;;;5030679;28;20087;-66
2021/03/17 11:48:44;;;;;;;21.08;13.75;;;384.00;1126.40;;;;;;5030635;28;20121;-66
2021/03/17 11:51:10;;;;;;;27.35;14.23;;;384.00;1100.80;;;;;;5031209;28;20411;-66
2021/03/17 11:53:36;;;;;;;25.13;12.63;;;384.10;1075.20;;;;;;5030525;28;20034;-66
2021/03/17 11:56:05;;;;;;;28.65;13.30;;;384.10;1049.60;;;;;;5033717;28;20025;-66
2021/03/17 11:58:31;;;;;;;25.05;14.70;;;384.20;1049.60;;;;;;5035547;28;20387;-66
2021/03/17 12:00:57;;;;;;;27.08;15.13;;;384.20;1075.20;;;;;;5017099;28;20375;-65
2021/03/17 12:03:23;;;;;;;25.08;15.02;;;384.20;1075.20;;;;;;5034319;28;20037;-65
2021/03/17 12:05:50;;;;;;;29.58;14.68;;;384.20;1075.20;;;;;;5035014;28;20026;-66
2021/03/17 12:08:17;;;;;;;24.13;14.32;;;384.20;1049.60;;;;;;5035006;28;20025;-65
2021/03/17 12:10:43;;;;;;;30.50;13.70;;;384.20;1024.00;;;;;;5031610;28;20030;-65
2021/03/17 12:13:09;;;;;;;21.73;12.32;;;384.20;1024.00;;;;;;5034716;28;20022;-66
2021/03/17 12:15:35;;;;;;;19.33;11.18;;;384.20;998.40;;;;;;5034536;28;20075;-66
2021/03/17 12:18:02;;;;;;;22.67;12.40;;;384.20;972.80;;;;;;5034489;28;20025;-66
2021/03/17 12:20:29;;;;;;;22.90;13.05;;;384.30;998.40;;;;;;5034758;28;20021;-66